createdAt,value
2016-11-08T00:00:27.404Z,3.5
2016-11-08T00:01:30.532Z,3.5
2016-11-08T00:02:33.659Z,3.5
2016-11-08T00:03:36.786Z,3.5
2016-11-08T00:04:39.914Z,3.6
2016-11-08T00:05:43.042Z,3.5
2016-11-08T00:06:46.170Z,3.5
2016-11-08T00:07:49.293Z,3.5
2016-11-08T00:08:52.416Z,3.6
2016-11-08T00:09:55.546Z,3.6
2016-11-08T00:10:58.688Z,3.6
2016-11-08T00:12:01.806Z,3.5
2016-11-08T00:13:04.932Z,3.5
2016-11-08T00:14:08.062Z,3.5
2016-11-08T00:15:11.179Z,3.6
2016-11-08T00:16:14.303Z,3.6
2016-11-08T00:17:17.427Z,3.6
2016-11-08T00:18:20.560Z,3.6
2016-11-08T00:19:23.684Z,3.6
2016-11-08T00:20:26.812Z,3.6
2016-11-08T00:21:29.935Z,3.6
2016-11-08T00:22:33.057Z,3.6
2016-11-08T00:23:36.172Z,3.5
2016-11-08T00:24:39.297Z,3.5
2016-11-08T00:25:42.421Z,3.5
2016-11-08T00:26:45.548Z,3.5
2016-11-08T00:27:48.673Z,3.5
2016-11-08T00:28:51.793Z,3.6
2016-11-08T00:29:54.922Z,3.5
2016-11-08T00:30:58.047Z,3.4
2016-11-08T00:32:01.167Z,3.5
2016-11-08T00:33:04.289Z,3.5
2016-11-08T00:34:07.420Z,3.5
2016-11-08T00:35:10.538Z,3.5
2016-11-08T00:36:13.661Z,3.4
2016-11-08T00:37:16.799Z,3.4
2016-11-08T00:38:19.926Z,3.4
2016-11-08T00:39:23.054Z,3.4
2016-11-08T00:40:26.175Z,3.4
2016-11-08T00:41:29.303Z,3.4
2016-11-08T00:42:32.420Z,3.5
2016-11-08T00:43:35.548Z,3.5
2016-11-08T00:44:38.668Z,3.4
2016-11-08T00:45:41.797Z,3.4
2016-11-08T00:46:44.919Z,3.4
2016-11-08T00:47:48.042Z,3.4
2016-11-08T00:48:51.168Z,3.4
2016-11-08T00:49:54.296Z,3.3
2016-11-08T00:50:57.419Z,3.3
2016-11-08T00:52:00.548Z,3.3
2016-11-08T00:53:03.667Z,3.3
2016-11-08T00:54:06.799Z,3.3
2016-11-08T00:55:09.931Z,3.3
2016-11-08T00:56:13.056Z,3.3
2016-11-08T00:57:16.271Z,3.3
2016-11-08T00:58:19.401Z,3.3
2016-11-08T00:59:22.517Z,3.3
2016-11-08T01:00:25.639Z,3.4
2016-11-08T01:01:28.765Z,3.4
2016-11-08T01:02:31.896Z,3.4
2016-11-08T01:03:35.019Z,3.3
2016-11-08T01:04:38.148Z,3.3
2016-11-08T01:05:41.274Z,3.3
2016-11-08T01:06:44.395Z,3.3
2016-11-08T01:07:47.517Z,3.2
2016-11-08T01:08:50.641Z,3.2
2016-11-08T01:09:53.769Z,3.2
2016-11-08T01:10:56.902Z,3.2
2016-11-08T01:12:00.020Z,3.2
2016-11-08T01:13:03.143Z,3.2
2016-11-08T01:14:06.269Z,3.3
2016-11-08T01:15:09.399Z,3.2
2016-11-08T01:16:12.528Z,3.2
2016-11-08T01:17:15.652Z,3.2
2016-11-08T01:18:18.767Z,3.2
2016-11-08T01:19:21.896Z,3.2
2016-11-08T01:20:25.024Z,3.2
2016-11-08T01:21:28.147Z,3.2
2016-11-08T01:22:31.278Z,3.2
2016-11-08T01:23:34.406Z,3.2
2016-11-08T01:24:37.535Z,3.1
2016-11-08T01:25:40.657Z,3.2
2016-11-08T01:26:43.790Z,3.2
2016-11-08T01:27:46.910Z,3.2
2016-11-08T01:28:50.034Z,3.1
2016-11-08T01:29:53.158Z,3.1
2016-11-08T01:30:56.286Z,3.1
2016-11-08T01:31:59.410Z,3.2
2016-11-08T01:33:02.532Z,3.2
2016-11-08T01:34:05.661Z,3.2
2016-11-08T01:35:08.796Z,3.2
2016-11-08T01:36:11.921Z,3.2
2016-11-08T01:37:15.041Z,3.1
2016-11-08T01:38:18.167Z,3.1
2016-11-08T01:39:21.295Z,3.1
2016-11-08T01:40:24.422Z,3
2016-11-08T01:41:27.555Z,3
2016-11-08T01:42:30.675Z,3.1
2016-11-08T01:43:33.791Z,3.1
2016-11-08T01:44:36.921Z,3.2
2016-11-08T01:45:40.043Z,3.1
2016-11-08T01:46:43.176Z,3
2016-11-08T01:47:46.291Z,3
2016-11-08T01:48:49.414Z,3
2016-11-08T01:49:52.629Z,3
2016-11-08T01:50:55.762Z,3
2016-11-08T01:51:58.889Z,3
2016-11-08T01:53:02.013Z,2.9
2016-11-08T01:54:05.137Z,2.9
2016-11-08T01:55:08.264Z,2.9
2016-11-08T01:56:11.392Z,2.9
2016-11-08T01:57:14.510Z,2.9
2016-11-08T01:58:17.630Z,2.9
2016-11-08T01:59:20.762Z,2.9
2016-11-08T02:00:23.895Z,2.8
2016-11-08T02:01:27.010Z,2.8
2016-11-08T02:02:30.135Z,2.8
2016-11-08T02:03:33.262Z,2.8
2016-11-08T02:04:36.390Z,2.8
2016-11-08T02:05:39.515Z,2.8
2016-11-08T02:06:42.640Z,2.8
2016-11-08T02:07:45.770Z,2.9
2016-11-08T02:08:48.895Z,2.8
2016-11-08T02:09:52.027Z,2.8
2016-11-08T02:10:55.153Z,2.7
2016-11-08T02:11:58.277Z,2.7
2016-11-08T02:13:01.397Z,2.7
2016-11-08T02:14:04.521Z,2.8
2016-11-08T02:15:07.649Z,2.8
2016-11-08T02:16:10.773Z,2.8
2016-11-08T02:17:13.900Z,2.8
2016-11-08T02:18:17.029Z,2.8
2016-11-08T02:19:20.166Z,2.7
2016-11-08T02:20:23.290Z,2.7
2016-11-08T02:21:26.507Z,2.7
2016-11-08T02:22:29.626Z,2.7
2016-11-08T02:23:32.761Z,2.7
2016-11-08T02:24:35.885Z,2.8
2016-11-08T02:25:39.014Z,2.7
2016-11-08T02:26:42.132Z,2.7
2016-11-08T02:27:45.260Z,2.8
2016-11-08T02:28:48.381Z,2.8
2016-11-08T02:29:51.504Z,2.8
2016-11-08T02:30:54.627Z,2.8
2016-11-08T02:31:57.759Z,2.7
2016-11-08T02:33:00.878Z,2.7
2016-11-08T02:34:04.001Z,2.7
2016-11-08T02:35:07.136Z,2.7
2016-11-08T02:36:10.263Z,2.7
2016-11-08T02:37:13.384Z,2.7
2016-11-08T02:38:16.506Z,2.7
2016-11-08T02:39:19.640Z,2.7
2016-11-08T02:40:22.758Z,2.6
2016-11-08T02:41:25.883Z,2.6
2016-11-08T02:42:29.007Z,2.6
2016-11-08T02:43:32.134Z,2.5
2016-11-08T02:44:35.260Z,2.5
2016-11-08T02:45:38.377Z,2.5
2016-11-08T02:46:41.499Z,2.5
2016-11-08T02:47:44.623Z,2.5
2016-11-08T02:48:47.748Z,2.5
2016-11-08T02:49:50.863Z,2.5
2016-11-08T02:50:53.995Z,2.5
2016-11-08T02:51:57.117Z,2.5
2016-11-08T02:53:00.244Z,2.5
2016-11-08T02:54:03.370Z,2.4
2016-11-08T02:55:06.490Z,2.4
2016-11-08T02:56:09.613Z,2.4
2016-11-08T02:57:12.731Z,2.4
2016-11-08T02:58:15.858Z,2.4
2016-11-08T02:59:18.994Z,2.4
2016-11-08T03:00:22.114Z,2.3
2016-11-08T03:01:25.238Z,2.4
2016-11-08T03:02:28.370Z,2.4
2016-11-08T03:03:31.486Z,2.4
2016-11-08T03:04:34.611Z,2.4
2016-11-08T03:05:37.734Z,2.3
2016-11-08T03:06:40.865Z,2.4
2016-11-08T03:07:43.993Z,2.4
2016-11-08T03:08:47.113Z,2.4
2016-11-08T03:09:50.240Z,2.3
2016-11-08T03:10:53.370Z,2.3
2016-11-08T03:11:56.483Z,2.3
2016-11-08T03:12:59.619Z,2.4
2016-11-08T03:14:02.730Z,2.3
2016-11-08T03:15:05.857Z,2.4
2016-11-08T03:16:08.981Z,2.3
2016-11-08T03:17:12.104Z,2.3
2016-11-08T03:18:15.234Z,2.3
2016-11-08T03:19:18.354Z,2.2
2016-11-08T03:20:21.473Z,2.2
2016-11-08T03:21:24.599Z,2.3
2016-11-08T03:22:27.723Z,2.3
2016-11-08T03:23:30.849Z,2.3
2016-11-08T03:24:33.971Z,2.3
2016-11-08T03:25:37.100Z,2.2
2016-11-08T03:26:40.229Z,2.3
2016-11-08T03:27:43.359Z,2.2
2016-11-08T03:28:46.477Z,2.2
2016-11-08T03:29:49.603Z,2.2
2016-11-08T03:30:52.729Z,2.2
2016-11-08T03:31:55.856Z,2.3
2016-11-08T03:32:58.977Z,2.3
2016-11-08T03:34:02.103Z,2.2
2016-11-08T03:35:05.235Z,2.2
2016-11-08T03:36:08.358Z,2.3
2016-11-08T03:37:11.483Z,2.3
2016-11-08T03:38:14.608Z,2.2
2016-11-08T03:39:17.732Z,2.2
2016-11-08T03:40:20.857Z,2.2
2016-11-08T03:41:23.978Z,2.2
2016-11-08T03:42:27.107Z,2.2
2016-11-08T03:43:30.239Z,2.1
2016-11-08T03:44:33.361Z,2.2
2016-11-08T03:45:36.481Z,2.2
2016-11-08T03:46:39.606Z,2.2
2016-11-08T03:47:42.947Z,2.2
2016-11-08T03:48:46.069Z,2.2
2016-11-08T03:49:49.191Z,2.1
2016-11-08T03:50:52.319Z,2.1
2016-11-08T03:51:55.447Z,2.1
2016-11-08T03:52:58.577Z,2.1
2016-11-08T03:54:01.708Z,2.1
2016-11-08T03:55:04.838Z,2.1
2016-11-08T03:56:07.954Z,2.2
2016-11-08T03:57:11.082Z,2.2
2016-11-08T03:58:14.206Z,2.2
2016-11-08T03:59:17.337Z,2.3
2016-11-08T04:00:20.465Z,2.2
2016-11-08T04:01:23.585Z,2.2
2016-11-08T04:02:26.708Z,2.2
2016-11-08T04:03:29.842Z,2.1
2016-11-08T04:04:32.963Z,2.2
2016-11-08T04:05:36.082Z,2.2
2016-11-08T04:06:39.217Z,2.2
2016-11-08T04:07:42.563Z,2.2
2016-11-08T04:08:45.674Z,2.2
2016-11-08T04:09:48.802Z,2.2
2016-11-08T04:10:51.933Z,2.2
2016-11-08T04:11:55.067Z,2.2
2016-11-08T04:12:58.184Z,2.2
2016-11-08T04:14:01.305Z,2.2
2016-11-08T04:15:04.442Z,2.2
2016-11-08T04:16:07.557Z,2.1
2016-11-08T04:17:10.678Z,2.2
2016-11-08T04:18:13.799Z,2.1
2016-11-08T04:19:16.931Z,2.1
2016-11-08T04:20:20.053Z,2.2
2016-11-08T04:21:23.178Z,2.2
2016-11-08T04:22:26.314Z,2.2
2016-11-08T04:23:29.442Z,2.2
2016-11-08T04:24:32.561Z,2.1
2016-11-08T04:25:35.683Z,2.1
2016-11-08T04:26:38.816Z,2.2
2016-11-08T04:27:41.942Z,2.2
2016-11-08T04:28:45.063Z,2.2
2016-11-08T04:29:48.190Z,2.1
2016-11-08T04:30:51.318Z,2.2
2016-11-08T04:31:54.432Z,2.2
2016-11-08T04:32:57.553Z,2.2
2016-11-08T04:34:00.682Z,2.2
2016-11-08T04:35:03.813Z,2.1
2016-11-08T04:36:06.930Z,2.2
2016-11-08T04:37:10.054Z,2.1
2016-11-08T04:38:13.177Z,2.2
2016-11-08T04:39:16.311Z,2.2
2016-11-08T04:40:19.439Z,2.2
2016-11-08T04:41:22.564Z,2.2
2016-11-08T04:42:25.679Z,2.2
2016-11-08T04:43:28.806Z,2.1
2016-11-08T04:44:31.930Z,2.1
2016-11-08T04:45:35.050Z,2.1
2016-11-08T04:46:38.173Z,2.2
2016-11-08T04:47:41.304Z,2.1
2016-11-08T04:48:44.426Z,2.1
2016-11-08T04:49:47.552Z,2
2016-11-08T04:50:50.675Z,2.1
2016-11-08T04:51:53.803Z,2
2016-11-08T04:52:56.923Z,2
2016-11-08T04:54:00.045Z,2
2016-11-08T04:55:03.173Z,2.1
2016-11-08T04:56:06.298Z,2.1
2016-11-08T04:57:09.431Z,2.1
2016-11-08T04:58:12.558Z,2.1
2016-11-08T04:59:15.691Z,2.1
2016-11-08T05:00:18.812Z,2
2016-11-08T05:01:21.932Z,2
2016-11-08T05:02:25.056Z,2.1
2016-11-08T05:03:28.177Z,2.3
2016-11-08T05:04:31.300Z,2.2
2016-11-08T05:05:34.420Z,2.2
2016-11-08T05:06:37.553Z,2.2
2016-11-08T05:07:40.688Z,2.2
2016-11-08T05:08:43.809Z,2.1
2016-11-08T05:09:46.931Z,2.1
2016-11-08T05:10:50.062Z,2.1
2016-11-08T05:11:53.185Z,2.1
2016-11-08T05:12:56.309Z,2.1
2016-11-08T05:13:59.430Z,2
2016-11-08T05:15:02.562Z,2
2016-11-08T05:16:05.682Z,2
2016-11-08T05:17:08.805Z,2
2016-11-08T05:18:11.933Z,2
2016-11-08T05:19:15.053Z,2
2016-11-08T05:20:18.174Z,2
2016-11-08T05:21:21.296Z,2
2016-11-08T05:22:24.418Z,2
2016-11-08T05:23:27.552Z,2
2016-11-08T05:24:30.679Z,2
2016-11-08T05:25:33.801Z,2.1
2016-11-08T05:26:36.922Z,2.1
2016-11-08T05:27:40.052Z,2.1
2016-11-08T05:28:43.173Z,2
2016-11-08T05:29:46.300Z,2
2016-11-08T05:30:49.422Z,2
2016-11-08T05:31:52.555Z,2
2016-11-08T05:32:55.675Z,2
2016-11-08T05:33:58.805Z,2
2016-11-08T05:35:01.927Z,2
2016-11-08T05:36:05.064Z,2
2016-11-08T05:37:08.185Z,2
2016-11-08T05:38:11.313Z,2
2016-11-08T05:39:14.442Z,2
2016-11-08T05:40:17.565Z,2
2016-11-08T05:41:20.696Z,2
2016-11-08T05:42:23.829Z,2.1
2016-11-08T05:43:26.955Z,2
2016-11-08T05:44:30.075Z,2
2016-11-08T05:45:33.199Z,1.9
2016-11-08T05:46:36.331Z,1.9
2016-11-08T05:47:39.462Z,2
2016-11-08T05:48:42.586Z,1.9
2016-11-08T05:49:45.707Z,1.9
2016-11-08T05:50:48.840Z,2
2016-11-08T05:51:51.960Z,2
2016-11-08T05:52:55.083Z,2
2016-11-08T05:53:58.422Z,2
2016-11-08T05:55:01.554Z,2
2016-11-08T05:56:04.676Z,2
2016-11-08T05:57:07.806Z,2.1
2016-11-08T05:58:10.927Z,2.1
2016-11-08T05:59:14.057Z,2.1
2016-11-08T06:00:17.212Z,2
2016-11-08T06:01:20.329Z,2
2016-11-08T06:02:23.455Z,2
2016-11-08T06:03:26.578Z,2
2016-11-08T06:04:29.695Z,2
2016-11-08T06:05:32.822Z,2.1
2016-11-08T06:06:35.947Z,2
2016-11-08T06:07:39.072Z,2
2016-11-08T06:08:42.199Z,2
2016-11-08T06:09:45.362Z,2
2016-11-08T06:10:48.476Z,2
2016-11-08T06:11:51.603Z,2
2016-11-08T06:12:54.727Z,2
2016-11-08T06:13:57.859Z,2
2016-11-08T06:15:01.206Z,2
2016-11-08T06:16:04.336Z,1.9
2016-11-08T06:17:07.464Z,1.9
2016-11-08T06:18:10.592Z,1.9
2016-11-08T06:19:13.756Z,1.9
2016-11-08T06:20:16.833Z,1.9
2016-11-08T06:21:19.953Z,1.9
2016-11-08T06:22:23.079Z,1.9
2016-11-08T06:23:26.204Z,1.9
2016-11-08T06:24:29.332Z,1.9
2016-11-08T06:25:32.459Z,1.9
2016-11-08T06:26:35.588Z,2
2016-11-08T06:27:38.718Z,2
2016-11-08T06:28:41.837Z,2
2016-11-08T06:29:44.957Z,1.9
2016-11-08T06:30:48.087Z,2
2016-11-08T06:31:51.220Z,2
2016-11-08T06:32:54.342Z,2
2016-11-08T06:33:58.279Z,2
2016-11-08T06:35:01.407Z,1.9
2016-11-08T06:36:04.529Z,1.9
2016-11-08T06:37:07.654Z,2
2016-11-08T06:38:10.777Z,2
2016-11-08T06:39:13.907Z,1.9
2016-11-08T06:40:17.034Z,1.9
2016-11-08T06:41:20.162Z,1.9
2016-11-08T06:43:31.855Z,1.9
2016-11-08T06:44:43.406Z,1.9
2016-11-08T06:45:53.661Z,1.9
2016-11-08T06:47:03.916Z,1.9
2016-11-08T06:48:14.171Z,1.9
2016-11-08T06:49:17.302Z,1.9
2016-11-08T06:50:27.558Z,1.9
2016-11-08T06:51:37.812Z,1.9
2016-11-08T13:08:10.835Z,2.3
2016-11-08T13:09:13.959Z,2.2
2016-11-08T13:10:17.089Z,2.2
2016-11-08T13:11:20.216Z,2.3
2016-11-08T13:12:23.338Z,2.2
2016-11-08T13:13:26.465Z,2.2
2016-11-08T13:14:29.598Z,2.2
2016-11-08T13:15:32.718Z,2.2
2016-11-08T13:16:35.838Z,2.2
2016-11-08T13:17:38.974Z,2.2
2016-11-08T13:18:42.101Z,2.2
2016-11-08T13:19:45.228Z,2.2
2016-11-08T13:20:48.351Z,2.2
2016-11-08T13:21:51.475Z,2.2
2016-11-08T13:22:54.610Z,2.1
2016-11-08T13:23:57.732Z,2.1
2016-11-08T13:25:00.856Z,2.2
2016-11-08T13:26:03.999Z,2.2
2016-11-08T13:27:07.101Z,2.2
2016-11-08T13:28:10.226Z,2.2
2016-11-08T13:29:13.352Z,2.2
2016-11-08T13:30:16.480Z,2.3
2016-11-08T13:31:19.613Z,2.3
2016-11-08T13:32:22.725Z,2.3
2016-11-08T13:33:25.848Z,2.3
2016-11-08T13:34:28.975Z,2.3
2016-11-08T13:35:32.094Z,2.3
2016-11-08T13:36:35.215Z,2.3
2016-11-08T13:37:38.347Z,2.3
2016-11-08T13:38:41.474Z,2.3
2016-11-08T13:39:44.617Z,2.2
2016-11-08T13:40:47.731Z,2.3
2016-11-08T13:41:50.860Z,2.3
2016-11-08T13:42:53.989Z,2.3
2016-11-08T13:43:57.107Z,2.2
2016-11-08T13:45:00.228Z,2.2
2016-11-08T13:46:03.349Z,2.3
2016-11-08T13:47:06.469Z,2.3
2016-11-08T13:48:09.588Z,2.4
2016-11-08T13:49:12.715Z,2.3
2016-11-08T13:50:15.844Z,2.4
2016-11-08T13:51:18.966Z,2.4
2016-11-08T13:52:22.091Z,2.4
2016-11-08T13:53:25.215Z,2.4
2016-11-08T13:54:28.338Z,2.3
2016-11-08T13:55:31.462Z,2.3
2016-11-08T13:56:34.591Z,2.2
2016-11-08T13:57:37.714Z,2.2
2016-11-08T13:58:40.832Z,2.2
2016-11-08T13:59:43.961Z,2.2
2016-11-08T14:00:47.076Z,2.2
2016-11-08T14:01:50.198Z,2.2
2016-11-08T14:02:53.317Z,2.3
2016-11-08T14:03:56.454Z,2.3
2016-11-08T14:05:02.608Z,2.4
2016-11-08T14:06:05.936Z,2.5
2016-11-08T14:07:09.060Z,2.3
2016-11-08T14:08:12.188Z,2.3
2016-11-08T14:09:15.305Z,2.2
2016-11-08T14:10:18.429Z,2.2
2016-11-08T14:11:21.553Z,2.3
2016-11-08T14:12:24.679Z,2.4
2016-11-08T14:13:27.793Z,2.3
2016-11-08T14:14:31.270Z,2.3
2016-11-08T14:15:34.394Z,2.2
2016-11-08T14:16:37.545Z,2.2
2016-11-08T14:17:40.656Z,2.1
2016-11-08T14:18:43.831Z,2.1
2016-11-08T14:19:46.953Z,2.2
2016-11-08T14:20:50.075Z,2.2
2016-11-08T14:21:53.200Z,2.2
2016-11-08T14:22:56.323Z,2.2
2016-11-08T14:23:59.469Z,2.2
2016-11-08T14:25:02.678Z,2.2
2016-11-08T14:26:05.799Z,2.2
2016-11-08T14:27:08.925Z,2.2
2016-11-08T14:28:12.043Z,2.2
2016-11-08T14:29:15.172Z,2.2
2016-11-08T14:30:18.300Z,2.1
2016-11-08T14:31:21.423Z,2.2
2016-11-08T14:32:24.543Z,2.2
2016-11-08T14:33:27.663Z,2.2
2016-11-08T14:34:30.791Z,2.2
2016-11-08T14:35:33.917Z,2.2
2016-11-08T14:36:37.048Z,2.1
2016-11-08T14:37:40.172Z,2.1
2016-11-08T14:38:43.159Z,2.1
2016-11-08T14:39:46.279Z,2.1
2016-11-08T14:40:49.393Z,2.1
2016-11-08T14:41:52.515Z,2.1
2016-11-08T14:42:55.639Z,2.1
2016-11-08T14:43:58.760Z,2
2016-11-08T14:45:01.890Z,2
2016-11-08T14:46:05.017Z,2
2016-11-08T14:47:08.141Z,2.1
2016-11-08T14:48:11.260Z,2.1
2016-11-08T14:49:14.387Z,2.1
2016-11-08T14:50:17.510Z,2.1
2016-11-08T14:51:20.631Z,2
2016-11-08T14:52:23.774Z,2.1
2016-11-08T14:53:27.010Z,2.1
2016-11-08T14:54:30.133Z,2
2016-11-08T14:55:33.288Z,2.1
2016-11-08T14:56:36.823Z,2.1
2016-11-08T14:57:39.944Z,2
2016-11-08T14:58:43.067Z,2
2016-11-08T14:59:46.257Z,2
2016-11-08T15:00:49.330Z,2
2016-11-08T15:01:52.455Z,1.9
2016-11-08T15:02:55.586Z,2
2016-11-08T15:03:58.708Z,2
2016-11-08T15:05:01.835Z,2
2016-11-08T15:06:04.962Z,2
2016-11-08T15:07:08.079Z,2
2016-11-08T15:08:11.196Z,2
2016-11-08T15:09:14.313Z,2
2016-11-08T15:10:17.445Z,2
2016-11-08T15:11:20.565Z,2
2016-11-08T15:12:23.685Z,2.1
2016-11-08T15:13:26.818Z,2.1
2016-11-08T15:14:29.952Z,2.1
2016-11-08T15:15:33.076Z,2
2016-11-08T15:16:36.205Z,2
2016-11-08T15:17:39.333Z,2
2016-11-08T15:18:42.462Z,2
2016-11-08T15:19:45.584Z,2
2016-11-08T15:20:48.712Z,2
2016-11-08T15:21:51.837Z,2.1
2016-11-08T15:22:54.959Z,2
2016-11-08T15:23:58.090Z,2.1
2016-11-08T15:25:01.217Z,2
2016-11-08T15:26:04.331Z,2.1
2016-11-08T15:27:07.454Z,2.1
2016-11-08T15:28:10.582Z,2.1
2016-11-08T15:29:13.699Z,2
2016-11-08T15:30:16.829Z,2
2016-11-08T15:31:19.958Z,2
2016-11-08T15:32:23.094Z,2
2016-11-08T15:33:26.207Z,2
2016-11-08T15:34:29.333Z,2
2016-11-08T15:35:32.455Z,2
2016-11-08T15:36:35.583Z,2
2016-11-08T15:37:38.699Z,2
2016-11-08T15:38:41.823Z,2
2016-11-08T15:39:44.950Z,2
2016-11-08T15:40:48.065Z,2
2016-11-08T15:41:51.197Z,2
2016-11-08T15:42:54.335Z,2
2016-11-08T15:43:57.492Z,2
2016-11-08T15:45:00.625Z,2
2016-11-08T15:46:03.752Z,2
2016-11-08T15:47:06.872Z,2
2016-11-08T15:48:09.999Z,2
2016-11-08T15:49:13.124Z,2.1
2016-11-08T15:50:16.250Z,2.1
2016-11-08T15:51:19.377Z,2
2016-11-08T15:52:22.504Z,2
2016-11-08T15:53:25.629Z,2
2016-11-08T15:54:28.752Z,2
2016-11-08T15:55:31.878Z,2
2016-11-08T15:56:35.010Z,2
2016-11-08T15:57:38.129Z,2
2016-11-08T15:58:41.258Z,2
2016-11-08T15:59:44.379Z,2
2016-11-08T16:00:47.505Z,2
2016-11-08T16:01:50.629Z,2.1
2016-11-08T16:02:53.755Z,2.1
2016-11-08T16:03:56.879Z,2
2016-11-08T16:05:00.005Z,2
2016-11-08T16:06:03.132Z,2
2016-11-08T16:07:06.253Z,2
2016-11-08T16:08:09.385Z,2
2016-11-08T16:09:12.502Z,2
2016-11-08T16:10:15.625Z,2
2016-11-08T16:11:18.744Z,2
2016-11-08T16:12:21.870Z,2
2016-11-08T16:13:24.994Z,1.9
2016-11-08T16:14:28.124Z,1.9
2016-11-08T16:15:31.249Z,1.9
2016-11-08T16:16:34.376Z,1.9
2016-11-08T16:17:37.496Z,1.9
2016-11-08T16:18:40.618Z,2
2016-11-08T16:19:43.739Z,2
2016-11-08T16:20:46.863Z,2
2016-11-08T16:21:49.999Z,2
2016-11-08T16:22:53.118Z,2
2016-11-08T16:23:56.236Z,2
2016-11-08T16:24:59.359Z,2
2016-11-08T16:26:02.484Z,2
2016-11-08T16:27:05.607Z,2
2016-11-08T16:28:08.724Z,2
2016-11-08T16:29:11.853Z,2
2016-11-08T16:30:14.975Z,2
2016-11-08T16:31:18.121Z,2
2016-11-08T16:32:21.227Z,2.1
2016-11-08T16:33:24.351Z,2
2016-11-08T16:34:27.481Z,2
2016-11-08T16:35:30.596Z,2
2016-11-08T16:36:33.716Z,1.9
2016-11-08T16:37:36.848Z,1.9
2016-11-08T16:38:39.977Z,1.9
2016-11-08T16:39:43.102Z,1.9
2016-11-08T16:40:46.231Z,2
2016-11-08T16:41:49.357Z,1.9
2016-11-08T16:42:52.474Z,1.8
2016-11-08T16:43:55.590Z,1.8
2016-11-08T16:44:58.716Z,1.8
2016-11-08T16:46:01.842Z,1.8
2016-11-08T16:47:04.957Z,1.9
2016-11-08T16:48:08.086Z,1.9
2016-11-08T16:49:11.465Z,2
2016-11-08T16:51:23.009Z,1.9
2016-11-08T16:52:26.232Z,1.9
2016-11-08T16:53:29.356Z,1.9
2016-11-08T16:54:32.480Z,1.9
2016-11-08T16:55:35.604Z,1.9
2016-11-08T16:57:47.436Z,1.9
2016-11-08T16:58:50.564Z,2
2016-11-08T16:59:53.692Z,1.9
2016-11-08T17:00:56.824Z,1.9
2016-11-08T17:01:59.944Z,2
2016-11-08T17:03:11.494Z,2
2016-11-08T17:04:14.623Z,2
2016-11-08T17:06:26.455Z,2
2016-11-08T17:07:29.584Z,1.9
2016-11-08T17:08:32.715Z,1.9
2016-11-08T17:09:42.971Z,2
2016-11-08T17:10:46.100Z,2
2016-11-08T17:11:49.229Z,2
2016-11-08T17:12:52.350Z,2
2016-11-08T17:13:55.472Z,1.9
2016-11-08T17:14:58.602Z,1.9
2016-11-08T17:16:10.153Z,1.9
2016-11-08T17:17:13.283Z,1.9
2016-11-08T17:18:16.412Z,1.9
2016-11-08T17:19:19.576Z,1.9
2016-11-08T17:20:29.838Z,1.9
2016-11-08T17:21:32.961Z,1.9
2016-11-08T17:22:36.094Z,2
2016-11-08T17:23:39.214Z,2
